Time;durP1;ratioP1;P1;durP2;ratioP2;P2;SDS_P1;SDS_P2;PMS_P1;PMS_P2;Temp;Humidity;BMP_temperature;BMP_pressure;BME280_temperature;BME280_humidity;BME280_pressure;Samples;Min_cycle;Max_cycle;Signal;HPM_P1;HPM_P2
2020/12/13 00:00:15;;;;;;;17.83;13.52;;;1.40;94.60;;;;;;5082679;28;20825;-73
2020/12/13 00:02:42;;;;;;;18.95;13.98;;;1.50;94.70;;;;;;5069429;28;20460;-73
2020/12/13 00:05:10;;;;;;;19.20;14.10;;;1.50;94.70;;;;;;5090584;28;20429;-73
2020/12/13 00:07:39;;;;;;;20.70;15.07;;;1.50;94.70;;;;;;5086942;28;20441;-73
2020/12/13 00:10:07;;;;;;;18.88;14.70;;;1.40;94.80;;;;;;5072438;28;20790;-73
2020/12/13 00:12:36;;;;;;;22.30;15.90;;;1.40;94.90;;;;;;5086788;28;20479;-73
2020/12/13 00:15:04;;;;;;;20.35;14.85;;;1.40;95.00;;;;;;5072423;28;20883;-73
2020/12/13 00:17:31;;;;;;;20.90;15.57;;;1.40;94.90;;;;;;5077833;28;20407;-73
2020/12/13 00:19:57;;;;;;;23.38;16.02;;;1.50;95.00;;;;;;5052392;28;20423;-74
2020/12/13 00:22:24;;;;;;;23.17;15.80;;;1.50;95.10;;;;;;5073256;28;20499;-73
2020/12/13 00:24:51;;;;;;;21.77;16.05;;;1.40;95.20;;;;;;5089997;28;20394;-73
2020/12/13 00:27:17;;;;;;;21.02;15.45;;;1.40;95.20;;;;;;5087113;28;20398;-73
2020/12/13 00:29:43;;;;;;;22.98;16.00;;;1.50;95.30;;;;;;5072412;28;20768;-73
2020/12/13 00:32:10;;;;;;;22.35;16.30;;;1.50;95.30;;;;;;5090139;28;20418;-74
2020/12/13 00:34:37;;;;;;;21.50;15.35;;;1.50;95.30;;;;;;5086821;28;20424;-73
2020/12/13 00:37:04;;;;;;;22.17;15.98;;;1.50;95.20;;;;;;5089882;28;20401;-73
2020/12/13 00:39:32;;;;;;;20.27;14.98;;;1.60;95.30;;;;;;5086498;28;20422;-73
2020/12/13 00:42:01;;;;;;;19.70;14.90;;;1.60;95.30;;;;;;5072235;28;20430;-73
2020/12/13 00:44:27;;;;;;;21.35;15.02;;;1.60;95.20;;;;;;5068928;28;20449;-73
2020/12/13 00:46:53;;;;;;;21.43;14.77;;;1.60;95.40;;;;;;5089733;28;20433;-73
2020/12/13 00:49:20;;;;;;;18.45;14.45;;;1.60;95.20;;;;;;5089204;28;20859;-74
2020/12/13 00:51:49;;;;;;;18.63;13.90;;;1.60;95.20;;;;;;5093723;28;20433;-73
2020/12/13 00:54:15;;;;;;;20.73;14.95;;;1.60;95.30;;;;;;5072402;28;20421;-73
2020/12/13 00:56:45;;;;;;;19.67;15.02;;;1.60;95.30;;;;;;5076135;28;20466;-73
2020/12/13 00:59:11;;;;;;;17.55;13.95;;;1.60;95.40;;;;;;5089871;28;21267;-73
2020/12/13 01:01:38;;;;;;;18.25;14.40;;;1.60;95.40;;;;;;5075978;28;20401;-74
2020/12/13 01:04:04;;;;;;;19.33;14.10;;;1.70;95.60;;;;;;5073554;28;20402;-73
2020/12/13 01:06:31;;;;;;;19.17;14.55;;;1.80;95.20;;;;;;5092493;28;20442;-73
2020/12/13 01:09:00;;;;;;;23.20;15.63;;;1.90;95.10;;;;;;5075750;28;20406;-74
2020/12/13 01:11:30;;;;;;;18.20;14.10;;;1.80;95.30;;;;;;5089264;28;20402;-74
2020/12/13 01:13:59;;;;;;;18.58;14.30;;;1.80;95.20;;;;;;5075515;28;20406;-73
2020/12/13 01:16:28;;;;;;;20.23;14.93;;;1.80;95.20;;;;;;5089723;28;20417;-74
2020/12/13 01:18:54;;;;;;;17.87;14.03;;;1.70;95.50;;;;;;5092965;28;20470;-73
2020/12/13 01:21:22;;;;;;;18.92;14.13;;;1.70;95.60;;;;;;5089553;28;20436;-73
2020/12/13 01:23:50;;;;;;;18.95;14.18;;;1.70;95.80;;;;;;5075284;28;20888;-73
2020/12/13 01:26:17;;;;;;;19.65;13.90;;;1.70;95.80;;;;;;5071375;28;20905;-73
2020/12/13 01:28:44;;;;;;;20.13;14.20;;;1.70;95.80;;;;;;5074839;28;20398;-73
2020/12/13 01:31:18;;;;;;;16.33;13.07;;;1.70;95.70;;;;;;5089472;28;20487;-73
2020/12/13 01:33:45;;;;;;;19.75;14.15;;;1.80;95.60;;;;;;5074371;28;20810;-73
2020/12/13 01:36:17;;;;;;;16.75;13.40;;;1.80;95.70;;;;;;5089580;28;20506;-73
2020/12/13 01:38:44;;;;;;;17.67;13.32;;;1.80;95.70;;;;;;5092296;28;21100;-74
2020/12/13 01:41:14;;;;;;;20.30;14.65;;;1.80;95.50;;;;;;5090865;28;20432;-74
2020/12/13 01:43:53;;;;;;;20.65;15.00;;;1.80;95.60;;;;;;5071234;28;20435;-73
2020/12/13 01:46:19;;;;;;;23.40;16.90;;;1.80;95.70;;;;;;5072501;28;20398;-73
2020/12/13 01:48:46;;;;;;;25.30;17.63;;;1.80;95.90;;;;;;5088474;28;20410;-74
2020/12/13 01:51:27;;;;;;;23.30;17.10;;;1.90;95.80;;;;;;5074851;28;20417;-73
2020/12/13 01:53:57;;;;;;;24.00;16.92;;;1.80;95.70;;;;;;5088798;28;20445;-73
2020/12/13 01:56:24;;;;;;;22.13;16.57;;;1.80;95.80;;;;;;5074945;28;20434;-73
2020/12/13 01:58:56;;;;;;;23.05;16.52;;;1.80;95.80;;;;;;5088132;28;20530;-73
2020/12/13 02:01:23;;;;;;;22.92;16.58;;;1.80;95.90;;;;;;5091756;28;20703;-73
2020/12/13 02:03:59;;;;;;;21.10;15.80;;;1.80;96.00;;;;;;5071133;28;20842;-73
2020/12/13 02:06:30;;;;;;;20.00;15.32;;;1.80;96.00;;;;;;5074600;28;20402;-73
2020/12/13 02:08:56;;;;;;;18.15;14.38;;;1.90;96.00;;;;;;5071567;28;20463;-73
2020/12/13 02:11:23;;;;;;;19.80;14.27;;;1.80;96.00;;;;;;5091780;28;20853;-73
2020/12/13 02:13:50;;;;;;;18.48;14.15;;;1.90;96.00;;;;;;5088715;28;20776;-73
2020/12/13 02:16:21;;;;;;;19.00;13.88;;;1.80;96.00;;;;;;5092016;28;20490;-73
2020/12/13 02:18:50;;;;;;;17.50;13.30;;;1.90;96.10;;;;;;5070721;28;20430;-73
2020/12/13 02:21:16;;;;;;;18.55;12.50;;;2.00;95.80;;;;;;5091951;28;20487;-73
2020/12/13 02:23:44;;;;;;;17.38;14.02;;;2.10;95.80;;;;;;5070500;28;20394;-73
2020/12/13 02:26:15;;;;;;;18.38;13.45;;;2.00;95.80;;;;;;5091852;28;20953;-73
2020/12/13 02:28:42;;;;;;;17.75;12.95;;;1.90;96.00;;;;;;5074029;28;20437;-73
2020/12/13 02:31:10;;;;;;;18.48;13.27;;;1.90;96.20;;;;;;5070838;28;20927;-74
2020/12/13 02:33:37;;;;;;;15.65;12.23;;;1.90;96.30;;;;;;5091154;28;20879;-74
2020/12/13 02:36:04;;;;;;;14.30;11.52;;;2.10;96.10;;;;;;5070794;28;20402;-74
2020/12/13 02:38:31;;;;;;;15.10;11.20;;;2.10;96.00;;;;;;5073537;28;20442;-73
2020/12/13 02:40:59;;;;;;;15.00;11.90;;;2.10;95.90;;;;;;5088240;28;20437;-73
2020/12/13 02:43:26;;;;;;;16.77;12.10;;;2.00;96.00;;;;;;5074039;28;20416;-74
2020/12/13 02:45:53;;;;;;;15.75;12.07;;;2.00;96.10;;;;;;5069951;28;20402;-73
2020/12/13 02:48:23;;;;;;;16.42;12.48;;;2.00;96.20;;;;;;5073783;28;20402;-74
2020/12/13 02:50:49;;;;;;;20.40;12.93;;;2.00;96.30;;;;;;5087669;28;20405;-74
2020/12/13 02:53:16;;;;;;;15.57;12.30;;;2.00;96.40;;;;;;5073829;28;20406;-74
2020/12/13 02:55:42;;;;;;;14.27;11.10;;;2.00;96.50;;;;;;5087989;28;20418;-74
2020/12/13 02:58:08;;;;;;;14.10;11.73;;;2.00;96.40;;;;;;5073338;28;20916;-74
2020/12/13 03:00:35;;;;;;;14.82;12.10;;;2.00;96.50;;;;;;5090975;28;20426;-74
2020/12/13 03:03:02;;;;;;;16.17;12.15;;;2.10;96.60;;;;;;5088675;28;20434;-74
2020/12/13 03:05:28;;;;;;;18.17;13.00;;;2.10;96.60;;;;;;5091186;28;20463;-74
2020/12/13 03:07:58;;;;;;;17.25;12.85;;;2.10;96.60;;;;;;5087638;28;20398;-73
2020/12/13 03:10:25;;;;;;;13.93;11.15;;;2.10;96.60;;;;;;5090572;28;20861;-73
2020/12/13 03:12:53;;;;;;;14.23;10.83;;;2.10;96.70;;;;;;5086618;28;20432;-74
2020/12/13 03:15:20;;;;;;;13.98;10.95;;;2.10;96.40;;;;;;5090799;28;20499;-74
2020/12/13 03:17:47;;;;;;;13.07;10.60;;;2.10;96.40;;;;;;5069786;28;20842;-73
2020/12/13 03:20:13;;;;;;;17.52;11.57;;;2.10;96.30;;;;;;5090473;28;20455;-73
2020/12/13 03:22:39;;;;;;;14.33;11.27;;;2.10;96.40;;;;;;5069697;28;20402;-74
2020/12/13 03:25:06;;;;;;;13.10;10.50;;;2.10;96.40;;;;;;5072829;28;20434;-74
2020/12/13 03:27:32;;;;;;;13.02;10.05;;;2.10;96.40;;;;;;5087118;28;20899;-74
2020/12/13 03:30:03;;;;;;;14.30;11.20;;;2.10;96.40;;;;;;5073045;28;20471;-74
2020/12/13 03:32:30;;;;;;;14.05;11.38;;;2.10;96.50;;;;;;5070939;28;20406;-74
2020/12/13 03:34:58;;;;;;;14.35;11.18;;;2.10;96.50;;;;;;5071955;28;20429;-74
2020/12/13 03:37:25;;;;;;;17.02;11.48;;;2.20;96.50;;;;;;5090536;28;20495;-73
2020/12/13 03:39:54;;;;;;;15.70;11.63;;;2.20;96.60;;;;;;5069111;28;20426;-74
2020/12/13 03:42:21;;;;;;;16.23;12.23;;;2.20;96.70;;;;;;5073024;28;20394;-74
2020/12/13 03:44:47;;;;;;;17.50;12.60;;;2.10;96.70;;;;;;5069396;28;20402;-74
2020/12/13 03:47:16;;;;;;;17.38;12.80;;;2.20;96.70;;;;;;5073399;28;20438;-74
2020/12/13 03:49:45;;;;;;;15.80;11.77;;;2.20;96.80;;;;;;5086869;28;20867;-74
2020/12/13 03:52:11;;;;;;;14.43;11.27;;;2.20;96.80;;;;;;5072664;28;20398;-74
2020/12/13 03:54:40;;;;;;;16.15;12.35;;;2.20;96.70;;;;;;5087100;28;20467;-74
2020/12/13 03:57:06;;;;;;;23.27;15.77;;;2.30;96.70;;;;;;5090233;28;20494;-74
2020/12/13 03:59:32;;;;;;;23.03;15.87;;;2.30;96.60;;;;;;5065971;28;20832;-73
2020/12/13 04:02:04;;;;;;;22.38;17.10;;;2.30;96.50;;;;;;5090059;28;20742;-74
2020/12/13 04:04:31;;;;;;;25.50;18.08;;;2.30;96.50;;;;;;5086831;28;20433;-74
2020/12/13 04:06:57;;;;;;;26.07;18.50;;;2.30;96.40;;;;;;5072635;28;20488;-74
2020/12/13 04:09:29;;;;;;;26.58;18.58;;;2.20;96.50;;;;;;5090311;28;20413;-74
2020/12/13 04:11:58;;;;;;;26.97;18.43;;;2.30;96.60;;;;;;5086762;28;20862;-74
2020/12/13 04:14:27;;;;;;;38.38;25.75;;;2.20;96.40;;;;;;5090204;28;20422;-74
2020/12/13 04:16:53;;;;;;;43.38;28.13;;;2.20;96.60;;;;;;5069125;28;20779;-74
2020/12/13 04:19:20;;;;;;;39.05;26.05;;;2.20;96.70;;;;;;5072286;28;20422;-74
2020/12/13 04:21:47;;;;;;;44.38;29.05;;;2.20;96.70;;;;;;5068883;28;20410;-74
2020/12/13 04:24:13;;;;;;;45.00;30.65;;;2.20;96.60;;;;;;5075002;28;20474;-74
2020/12/13 04:26:40;;;;;;;33.70;24.20;;;2.30;96.60;;;;;;5071977;28;20414;-74
2020/12/13 04:29:09;;;;;;;30.55;20.90;;;2.30;96.60;;;;;;5094127;28;20730;-74
2020/12/13 04:31:35;;;;;;;28.50;19.73;;;2.30;96.60;;;;;;5090434;28;20791;-74
2020/12/13 04:34:04;;;;;;;28.27;19.42;;;2.30;96.60;;;;;;5076056;28;20467;-74
2020/12/13 04:36:30;;;;;;;27.77;19.90;;;2.30;96.60;;;;;;5090197;28;20800;-74
2020/12/13 04:38:57;;;;;;;27.90;19.45;;;2.30;96.70;;;;;;5093663;28;20458;-74
2020/12/13 04:41:26;;;;;;;29.60;21.13;;;2.30;96.70;;;;;;5091135;28;20413;-74
2020/12/13 04:43:55;;;;;;;29.90;20.57;;;2.30;96.70;;;;;;5056242;28;20530;-74
2020/12/13 04:46:26;;;;;;;31.33;21.45;;;2.30;96.60;;;;;;5055830;28;20752;-73
2020/12/13 04:48:55;;;;;;;30.38;21.42;;;2.30;96.50;;;;;;5071059;28;20437;-74
2020/12/13 04:51:25;;;;;;;35.38;23.90;;;2.30;96.60;;;;;;5076079;28;20418;-74
2020/12/13 04:54:05;;;;;;;33.05;22.85;;;2.30;96.50;;;;;;5074801;28;20424;-74
2020/12/13 04:56:36;;;;;;;33.40;23.20;;;2.40;96.50;;;;;;5055743;28;20855;-74
2020/12/13 04:59:04;;;;;;;34.10;23.10;;;2.30;96.50;;;;;;5063274;28;20469;-74
2020/12/13 05:01:30;;;;;;;31.65;22.58;;;2.30;96.40;;;;;;5055492;28;20880;-74
2020/12/13 05:04:00;;;;;;;33.40;23.30;;;2.30;96.40;;;;;;5064319;28;20842;-74
2020/12/13 05:06:29;;;;;;;35.83;24.20;;;2.30;96.50;;;;;;5093259;28;20402;-74
2020/12/13 05:08:55;;;;;;;35.53;24.05;;;2.30;96.60;;;;;;5089907;28;20401;-74
2020/12/13 05:11:23;;;;;;;37.13;24.87;;;2.30;96.70;;;;;;5092598;28;20854;-74
2020/12/13 05:13:50;;;;;;;34.38;24.30;;;2.30;96.70;;;;;;5072199;28;20414;-74
2020/12/13 05:16:16;;;;;;;39.15;25.35;;;2.30;96.60;;;;;;5093429;28;20406;-74
2020/12/13 05:18:44;;;;;;;35.30;24.42;;;2.30;96.60;;;;;;5072238;28;20406;-74
2020/12/13 05:21:10;;;;;;;36.50;25.67;;;2.30;96.60;;;;;;5093423;28;20406;-74
2020/12/13 05:23:44;;;;;;;38.13;26.20;;;2.30;96.60;;;;;;5075041;28;20429;-74
2020/12/13 05:26:11;;;;;;;36.95;25.98;;;2.30;96.70;;;;;;5073827;28;20454;-73
2020/12/13 05:28:43;;;;;;;37.93;25.20;;;2.20;96.70;;;;;;5092414;28;20402;-73
2020/12/13 05:31:12;;;;;;;40.05;26.13;;;2.20;96.70;;;;;;5089280;28;20870;-74
2020/12/13 05:33:43;;;;;;;38.25;25.58;;;2.30;96.70;;;;;;5074475;28;20426;-73
2020/12/13 05:36:10;;;;;;;39.05;26.80;;;2.30;96.60;;;;;;5070307;28;20405;-74
2020/12/13 05:38:39;;;;;;;39.08;26.70;;;2.30;96.60;;;;;;5092945;28;20504;-73
2020/12/13 05:41:10;;;;;;;37.40;25.30;;;2.30;96.70;;;;;;5071239;28;20442;-73
2020/12/13 05:43:49;;;;;;;40.78;27.38;;;2.30;96.70;;;;;;5074454;28;20430;-73
2020/12/13 05:51:38;;;;;;;38.97;26.33;;;2.30;96.70;;;;;;5089042;28;20394;-73
2020/12/13 05:54:19;;;;;;;40.80;27.35;;;2.30;96.80;;;;;;5074888;28;20471;-73
2020/12/13 05:57:16;;;;;;;36.40;25.70;;;2.30;96.80;;;;;;5087519;28;20889;-73
2020/12/13 05:59:45;;;;;;;37.22;25.63;;;2.30;96.70;;;;;;5063249;28;20439;-73
2020/12/13 06:02:12;;;;;;;40.67;27.85;;;2.30;96.60;;;;;;5062189;28;20764;-73
2020/12/13 06:04:44;;;;;;;38.60;26.58;;;2.30;96.70;;;;;;5074421;28;20410;-73
2020/12/13 06:07:13;;;;;;;40.70;28.25;;;2.40;96.70;;;;;;5070217;28;20398;-73
2020/12/13 06:09:41;;;;;;;42.03;28.00;;;2.40;96.60;;;;;;5091810;28;20394;-73
2020/12/13 06:12:11;;;;;;;40.55;28.00;;;2.30;96.60;;;;;;5087863;28;20506;-73
2020/12/13 06:14:41;;;;;;;42.17;28.52;;;2.40;96.60;;;;;;5092096;28;20453;-73
2020/12/13 06:17:08;;;;;;;43.72;29.60;;;2.40;96.60;;;;;;5088273;28;20471;-74
2020/12/13 06:19:38;;;;;;;49.90;33.63;;;2.40;96.60;;;;;;5091845;28;20437;-73
2020/12/13 06:22:13;;;;;;;56.03;35.88;;;2.40;96.60;;;;;;5071244;28;20414;-74
2020/12/13 06:24:44;;;;;;;50.83;33.72;;;2.40;96.60;;;;;;5073284;28;20426;-73
2020/12/13 06:27:11;;;;;;;48.75;33.13;;;2.30;96.50;;;;;;5074504;28;20498;-73
2020/12/13 06:29:37;;;;;;;42.17;29.05;;;2.30;96.60;;;;;;5087002;28;20426;-73
2020/12/13 06:32:05;;;;;;;40.35;28.80;;;2.30;96.50;;;;;;5091911;28;20409;-74
2020/12/13 06:34:32;;;;;;;45.72;29.73;;;2.30;96.50;;;;;;5069869;28;20424;-73
2020/12/13 06:37:03;;;;;;;43.10;29.20;;;2.30;96.40;;;;;;5091437;28;20845;-74
2020/12/13 06:39:31;;;;;;;43.33;29.17;;;2.30;96.40;;;;;;5068937;28;20433;-74
2020/12/13 06:42:03;;;;;;;45.38;29.73;;;2.40;96.70;;;;;;5073775;28;20418;-74
2020/12/13 06:44:29;;;;;;;42.38;28.90;;;2.30;96.50;;;;;;5087766;28;20488;-73
2020/12/13 06:46:56;;;;;;;41.88;29.13;;;2.40;96.50;;;;;;5091278;28;20406;-74
2020/12/13 06:49:25;;;;;;;45.37;30.90;;;2.40;96.50;;;;;;5069652;28;20441;-73
2020/12/13 06:51:52;;;;;;;44.50;29.92;;;2.40;96.50;;;;;;5091054;28;20410;-73
2020/12/13 06:54:19;;;;;;;42.45;29.55;;;2.30;96.50;;;;;;5069756;28;20472;-74
2020/12/13 06:56:47;;;;;;;41.78;29.33;;;2.40;96.60;;;;;;5091114;28;20404;-73
2020/12/13 06:59:19;;;;;;;45.95;30.20;;;2.40;96.70;;;;;;5086529;28;20479;-73
2020/12/13 07:01:47;;;;;;;44.17;30.02;;;2.40;96.70;;;;;;5071020;28;20439;-73
2020/12/13 07:04:46;;;;;;;42.90;28.95;;;2.40;96.70;;;;;;5053181;28;20452;-73
2020/12/13 07:07:24;;;;;;;45.15;30.60;;;2.40;96.70;;;;;;5081814;28;20671;-73
2020/12/13 07:09:56;;;;;;;44.60;29.30;;;2.40;96.80;;;;;;5068938;28;20838;-73
2020/12/13 07:12:24;;;;;;;40.93;28.23;;;2.50;96.80;;;;;;5053032;28;20458;-73
2020/12/13 07:14:53;;;;;;;42.63;29.23;;;2.50;96.60;;;;;;5053437;28;20427;-73
2020/12/13 07:17:21;;;;;;;45.50;29.00;;;2.50;96.50;;;;;;5068818;28;20398;-73
2020/12/13 07:19:48;;;;;;;43.10;29.83;;;2.50;96.60;;;;;;5090622;28;20893;-72
2020/12/13 07:22:16;;;;;;;39.38;28.27;;;2.50;96.60;;;;;;5087264;28;20852;-72
2020/12/13 07:24:43;;;;;;;41.58;28.95;;;2.60;96.60;;;;;;5090778;28;20897;-73
2020/12/13 07:27:11;;;;;;;41.92;29.55;;;2.60;96.60;;;;;;5069645;28;20465;-73
2020/12/13 07:29:38;;;;;;;46.08;30.23;;;2.60;96.50;;;;;;5073107;28;20405;-72
2020/12/13 07:32:05;;;;;;;42.70;28.90;;;2.60;96.50;;;;;;5069253;28;20873;-74
2020/12/13 07:34:33;;;;;;;41.20;28.20;;;2.60;96.50;;;;;;5072629;28;20883;-74
2020/12/13 07:37:03;;;;;;;42.72;29.67;;;2.60;96.50;;;;;;5069784;28;20406;-73
2020/12/13 07:39:29;;;;;;;43.35;28.98;;;2.60;96.50;;;;;;5072855;28;20426;-73
2020/12/13 07:42:06;;;;;;;43.05;29.25;;;2.60;96.50;;;;;;5068843;28;20487;-73
2020/12/13 07:44:33;;;;;;;42.00;28.15;;;2.60;96.60;;;;;;5090509;28;20402;-72
2020/12/13 07:46:59;;;;;;;41.97;28.50;;;2.60;96.70;;;;;;5086186;28;20465;-72
2020/12/13 07:49:26;;;;;;;41.53;27.48;;;2.70;96.60;;;;;;5052288;28;20420;-73
2020/12/13 07:51:54;;;;;;;40.60;27.65;;;2.60;96.60;;;;;;5052616;28;20484;-73
2020/12/13 07:54:24;;;;;;;41.60;28.10;;;2.60;96.70;;;;;;5067769;28;20406;-73
2020/12/13 07:56:56;;;;;;;40.00;27.80;;;2.70;96.70;;;;;;5071538;28;20409;-73
2020/12/13 07:59:24;;;;;;;38.83;27.33;;;2.70;96.80;;;;;;5071642;28;20502;-73
2020/12/13 08:01:57;;;;;;;38.33;27.33;;;2.70;96.70;;;;;;5076454;28;20439;-73
2020/12/13 08:04:38;;;;;;;39.20;26.65;;;2.80;96.70;;;;;;5073258;28;20869;-73
2020/12/13 08:07:10;;;;;;;40.30;27.80;;;2.80;96.70;;;;;;5076515;28;20393;-74
2020/12/13 08:09:43;;;;;;;41.08;26.65;;;2.90;96.70;;;;;;5090288;28;20711;-73
2020/12/13 08:12:11;;;;;;;38.72;26.02;;;2.90;96.60;;;;;;5093933;28;20490;-73
2020/12/13 08:14:37;;;;;;;34.72;23.80;;;2.90;96.90;;;;;;5073089;28;20438;-73
2020/12/13 08:17:04;;;;;;;40.00;25.53;;;2.90;96.60;;;;;;5094519;28;20401;-73
2020/12/13 08:19:41;;;;;;;39.38;26.17;;;3.00;96.70;;;;;;5090833;28;20872;-72
2020/12/13 08:22:23;;;;;;;42.40;27.52;;;3.00;96.80;;;;;;5076535;28;20442;-73
2020/12/13 08:24:59;;;;;;;44.75;28.42;;;3.00;96.70;;;;;;5071919;28;20948;-73
2020/12/13 08:27:30;;;;;;;45.00;28.75;;;3.00;96.70;;;;;;5093818;28;20911;-72
2020/12/13 08:30:00;;;;;;;45.53;29.60;;;3.10;96.80;;;;;;5090608;28;20663;-73
2020/12/13 08:32:32;;;;;;;48.50;30.87;;;3.10;96.80;;;;;;5076047;28;20903;-73
2020/12/13 08:35:17;;;;;;;45.08;30.65;;;3.10;96.70;;;;;;5090261;28;20434;-72
2020/12/13 08:38:02;;;;;;;47.17;31.63;;;3.10;96.60;;;;;;5093653;28;20405;-73
2020/12/13 08:40:41;;;;;;;50.17;33.72;;;3.10;96.90;;;;;;5090503;28;20490;-73
2020/12/13 08:43:10;;;;;;;51.65;34.72;;;3.10;96.60;;;;;;5093740;28;20746;-73
2020/12/13 08:45:37;;;;;;;49.37;33.20;;;3.10;96.70;;;;;;5072907;28;20463;-73
2020/12/13 08:48:08;;;;;;;48.47;32.17;;;3.10;96.60;;;;;;5076735;28;20402;-74
2020/12/13 08:50:39;;;;;;;47.30;32.53;;;3.20;96.70;;;;;;5089722;28;20520;-72
2020/12/13 08:53:27;;;;;;;45.33;31.00;;;3.20;96.60;;;;;;5072749;28;20794;-73
2020/12/13 08:56:06;;;;;;;44.25;30.48;;;3.20;96.50;;;;;;5084890;28;20928;-72
2020/12/13 08:58:50;;;;;;;45.25;31.05;;;3.20;96.60;;;;;;5081263;28;20433;-72
2020/12/13 09:01:17;;;;;;;38.80;27.98;;;3.20;96.60;;;;;;5088038;28;23320;-72
2020/12/13 09:03:44;;;;;;;38.72;26.85;;;3.20;96.50;;;;;;5082476;28;20954;-73
2020/12/13 09:06:11;;;;;;;39.15;27.45;;;3.20;96.50;;;;;;5091223;28;20935;-73
2020/12/13 09:08:40;;;;;;;41.35;29.95;;;3.30;96.50;;;;;;5071077;28;20919;-73
2020/12/13 09:11:07;;;;;;;40.67;29.75;;;3.30;96.60;;;;;;5092900;28;20410;-73
2020/12/13 09:13:33;;;;;;;41.22;28.90;;;3.30;96.50;;;;;;5091480;28;20478;-74
2020/12/13 09:16:03;;;;;;;39.30;28.00;;;3.40;96.30;;;;;;5068982;28;20404;-72
2020/12/13 09:18:31;;;;;;;38.28;26.35;;;3.30;96.30;;;;;;5064397;28;20440;-73
2020/12/13 09:20:58;;;;;;;35.57;25.27;;;3.40;96.20;;;;;;5091652;28;20428;-73
2020/12/13 09:23:25;;;;;;;39.42;26.60;;;3.40;96.10;;;;;;5087508;28;20704;-73
2020/12/13 09:25:53;;;;;;;38.72;26.38;;;3.40;96.20;;;;;;5074248;28;20394;-73
2020/12/13 09:28:21;;;;;;;33.75;25.50;;;3.40;96.30;;;;;;5092340;28;20400;-74
2020/12/13 09:30:50;;;;;;;36.17;25.33;;;3.40;96.20;;;;;;5094132;28;20457;-74
2020/12/13 09:33:16;;;;;;;35.40;25.42;;;3.50;96.30;;;;;;5103811;28;20426;-73
2020/12/13 09:35:44;;;;;;;33.70;25.30;;;3.60;96.60;;;;;;5091830;28;20764;-74
2020/12/13 09:38:10;;;;;;;36.70;25.70;;;3.60;96.00;;;;;;5070018;28;20471;-74
2020/12/13 09:40:37;;;;;;;35.83;25.17;;;3.60;96.20;;;;;;5074024;28;20515;-73
2020/12/13 09:43:04;;;;;;;37.42;26.63;;;3.60;96.30;;;;;;5073436;28;20406;-73
2020/12/13 09:45:30;;;;;;;37.78;25.35;;;3.60;96.30;;;;;;5069911;28;20492;-74
2020/12/13 09:47:57;;;;;;;32.50;23.60;;;3.70;96.40;;;;;;5092502;28;20711;-73
2020/12/13 09:50:28;;;;;;;27.48;20.40;;;3.70;96.30;;;;;;5071798;28;20418;-74
2020/12/13 09:52:54;;;;;;;29.33;21.45;;;3.70;96.00;;;;;;5074877;28;20481;-74
2020/12/13 09:55:21;;;;;;;30.55;21.83;;;3.70;96.20;;;;;;5089119;28;20414;-73
2020/12/13 09:57:48;;;;;;;30.02;22.45;;;3.70;96.20;;;;;;5074874;28;20414;-74
2020/12/13 10:00:14;;;;;;;33.33;24.10;;;3.80;96.20;;;;;;5065400;28;20781;-73
2020/12/13 10:02:42;;;;;;;30.45;22.20;;;3.80;96.40;;;;;;5092276;28;20484;-74
2020/12/13 10:05:20;;;;;;;30.13;21.80;;;3.90;96.30;;;;;;5070745;28;20483;-74
2020/12/13 10:10:14;;;;;;;24.90;18.43;;;3.90;96.30;;;;;;5088953;28;20562;-74
2020/12/13 10:12:41;;;;;;;25.08;17.45;;;3.90;96.20;;;;;;5074710;28;20410;-73
2020/12/13 10:15:10;;;;;;;27.13;19.15;;;4.00;95.90;;;;;;5074484;28;20409;-73
2020/12/13 10:17:37;;;;;;;30.17;22.33;;;4.00;95.90;;;;;;5072211;28;20838;-74
2020/12/13 10:20:04;;;;;;;26.85;18.20;;;4.00;95.90;;;;;;5073935;28;20428;-74
2020/12/13 10:22:30;;;;;;;23.92;16.92;;;4.00;96.00;;;;;;5085391;28;20886;-74
2020/12/13 10:24:56;;;;;;;23.85;16.83;;;4.00;96.20;;;;;;5074230;28;20499;-74
2020/12/13 10:27:23;;;;;;;22.67;15.85;;;4.00;96.30;;;;;;5088560;28;20855;-74
2020/12/13 10:29:49;;;;;;;24.13;15.90;;;4.00;96.30;;;;;;5079304;28;20481;-74
2020/12/13 10:32:16;;;;;;;25.50;16.40;;;4.10;96.30;;;;;;5051886;28;21212;-74
2020/12/13 10:34:43;;;;;;;23.70;17.00;;;4.10;96.20;;;;;;5071266;28;20518;-74
2020/12/13 10:37:09;;;;;;;22.77;16.00;;;4.20;96.20;;;;;;5056439;28;20536;-73
2020/12/13 10:39:36;;;;;;;22.52;16.13;;;4.20;96.20;;;;;;5073516;28;20454;-74
2020/12/13 10:42:05;;;;;;;22.33;15.35;;;4.20;96.30;;;;;;5070689;28;20405;-73
2020/12/13 10:44:31;;;;;;;21.55;15.13;;;4.30;96.30;;;;;;5091833;28;20497;-73
2020/12/13 10:46:58;;;;;;;22.00;15.80;;;4.30;96.20;;;;;;5071816;28;20402;-74
2020/12/13 10:49:26;;;;;;;24.35;17.23;;;4.30;96.20;;;;;;5072796;28;20406;-73
2020/12/13 10:51:53;;;;;;;23.40;16.75;;;4.30;96.20;;;;;;5073279;28;20438;-73
2020/12/13 10:54:19;;;;;;;24.52;16.73;;;4.30;96.30;;;;;;5070307;28;20398;-74
2020/12/13 10:56:46;;;;;;;23.98;18.20;;;4.30;96.40;;;;;;5073587;28;20459;-73
2020/12/13 10:59:19;;;;;;;28.13;20.27;;;4.30;96.50;;;;;;5069914;28;20789;-74
2020/12/13 11:01:46;;;;;;;31.83;21.13;;;4.30;96.40;;;;;;5073377;28;20461;-74
2020/12/13 11:04:13;;;;;;;29.15;20.73;;;4.30;96.30;;;;;;5087365;28;20424;-75
2020/12/13 11:06:39;;;;;;;30.52;21.60;;;4.30;96.30;;;;;;5072757;28;20667;-74
2020/12/13 11:09:06;;;;;;;30.52;21.85;;;4.30;96.30;;;;;;5070372;28;20488;-74
2020/12/13 11:11:32;;;;;;;31.35;22.55;;;4.30;96.40;;;;;;5091442;28;20464;-74
2020/12/13 11:13:58;;;;;;;30.08;21.10;;;4.40;96.50;;;;;;5070075;28;20457;-74
2020/12/13 11:16:25;;;;;;;30.57;21.47;;;4.40;96.50;;;;;;5089858;28;20414;-73
2020/12/13 11:18:52;;;;;;;31.70;22.08;;;4.40;96.50;;;;;;5087974;28;20416;-74
2020/12/13 11:21:20;;;;;;;29.33;21.23;;;4.50;96.50;;;;;;5090696;28;20479;-74
2020/12/13 11:23:47;;;;;;;29.17;21.08;;;4.50;96.50;;;;;;5091443;28;20544;-74
2020/12/13 11:26:13;;;;;;;30.77;20.90;;;4.60;96.50;;;;;;5068544;28;20457;-73
2020/12/13 11:28:42;;;;;;;29.00;20.75;;;4.60;96.50;;;;;;5090671;28;20445;-74
2020/12/13 11:31:08;;;;;;;26.83;18.13;;;4.60;96.50;;;;;;5086652;28;20442;-73
2020/12/13 11:33:35;;;;;;;27.47;19.30;;;4.60;96.20;;;;;;5088839;28;20433;-73
2020/12/13 11:36:04;;;;;;;27.70;19.15;;;4.70;96.30;;;;;;5087261;28;20723;-74
2020/12/13 11:38:33;;;;;;;27.40;18.77;;;4.60;96.30;;;;;;5073095;28;20459;-74
2020/12/13 11:40:59;;;;;;;24.77;18.25;;;4.60;96.30;;;;;;5069791;28;20527;-74
2020/12/13 11:43:28;;;;;;;26.77;18.30;;;4.60;96.20;;;;;;5073060;28;20410;-74
2020/12/13 11:45:54;;;;;;;26.85;17.98;;;4.70;96.30;;;;;;5070029;28;20800;-73
2020/12/13 11:48:21;;;;;;;26.95;18.52;;;4.70;96.20;;;;;;5073044;28;20776;-73
2020/12/13 11:50:50;;;;;;;27.63;19.02;;;4.70;96.30;;;;;;5069719;28;20465;-74
2020/12/13 11:53:17;;;;;;;29.60;20.50;;;4.70;96.30;;;;;;5090763;28;20777;-74
2020/12/13 11:55:46;;;;;;;33.53;22.58;;;4.70;96.30;;;;;;5072977;28;20441;-74
2020/12/13 11:58:16;;;;;;;32.83;22.50;;;4.70;96.20;;;;;;5087060;28;20454;-74
2020/12/13 12:00:43;;;;;;;33.67;21.90;;;4.70;96.20;;;;;;5090191;28;20432;-73
2020/12/13 12:03:10;;;;;;;29.88;21.42;;;4.70;96.30;;;;;;5069525;28;20402;-74
2020/12/13 12:05:36;;;;;;;34.13;22.10;;;4.70;96.40;;;;;;5073115;28;20402;-73
2020/12/13 12:08:03;;;;;;;32.78;20.73;;;4.80;96.50;;;;;;5069428;28;20402;-74
2020/12/13 12:10:31;;;;;;;28.15;19.83;;;4.80;96.40;;;;;;5090314;28;20489;-74
2020/12/13 12:12:58;;;;;;;29.48;19.75;;;4.80;96.20;;;;;;5069011;28;20406;-73
2020/12/13 12:15:27;;;;;;;32.22;20.60;;;4.80;96.20;;;;;;5089813;28;20853;-74
2020/12/13 12:17:55;;;;;;;27.67;20.00;;;4.80;96.20;;;;;;5086829;28;20487;-74
2020/12/13 12:20:26;;;;;;;32.50;21.65;;;4.80;96.20;;;;;;5072317;28;20417;-74
2020/12/13 12:22:54;;;;;;;29.95;21.13;;;4.90;96.30;;;;;;5068929;28;20402;-74
2020/12/13 12:25:20;;;;;;;31.77;21.90;;;4.90;96.30;;;;;;5072128;28;20826;-73
2020/12/13 12:27:47;;;;;;;28.00;21.67;;;4.80;96.20;;;;;;5068189;28;20413;-73
2020/12/13 12:30:17;;;;;;;33.45;23.25;;;4.90;96.30;;;;;;5072605;28;20467;-73
2020/12/13 12:32:45;;;;;;;33.05;24.08;;;4.90;96.30;;;;;;5089758;28;20466;-74
2020/12/13 12:35:12;;;;;;;33.07;23.20;;;4.90;96.40;;;;;;5068631;28;20410;-74
2020/12/13 12:37:38;;;;;;;31.30;22.33;;;4.90;96.50;;;;;;5090293;28;20483;-74
2020/12/13 12:40:05;;;;;;;35.97;23.90;;;4.90;96.50;;;;;;5086415;28;20825;-73
2020/12/13 12:42:32;;;;;;;33.55;23.95;;;4.90;96.50;;;;;;5089894;28;20402;-73
2020/12/13 12:44:59;;;;;;;35.53;24.65;;;4.90;96.50;;;;;;5071511;28;20943;-74
2020/12/13 12:47:25;;;;;;;33.25;24.75;;;4.90;96.50;;;;;;5093613;28;20425;-73
2020/12/13 12:49:53;;;;;;;29.73;22.15;;;4.90;96.60;;;;;;5072745;28;20454;-74